Nearby METAR Reports

 

ELLX - Luxembourg (aut), Luxembourg
Distance from station: NNE 33km
Updated: 07/05/2021 01:50
Mostly cloudy
Mostly cloudy
 Wind from WNW
Wind: WNW 17 km/h
Temperature: 5°C
Wind Chill: 2°C
Dew Point: 4°C
Humidity: 93%
Barometer: 1008 hPa
Clouds: Mostly cloudy
Visibility: 10 km
Cloud details: Few Clouds 305 m
Mostly cloudy 457 m
2021/05/06 23:50 ELLX 062350Z 29009KT 260V320 9999 FEW010 BKN015 05/04 Q1008 NOSIG
LFJL - Metz-Nancy-Lorra, France
Distance from station: SSE 46km
Updated: 07/05/2021 02:00
Mostly cloudy
Mostly cloudy
 Wind from W
Wind: W 13 km/h
Temperature: 7°C
Wind Chill: 5°C
Dew Point: 5°C
Humidity: 87%
Barometer: 1009 hPa
Clouds: Mostly cloudy
Visibility: 10 km
Cloud details: Few Clouds 366 m
Partly cloudy 853 m
Mostly cloudy 1250 m
2021/05/07 00:00 LFJL 070000Z AUTO 27007KT 9999 FEW012 SCT028 BKN041 07/05 Q1009 TEMPO 4000 -SHRA BKN008
 
EDDR - Saarbruecken, Germany
Distance from station: E 78km
Updated: 07/05/2021 01:50
Light rain, Mostly cloudy
Light rain, Mostly cloudy
 Wind from W
Wind: W 9 km/h
Temperature: 6°C
Wind Chill: 4°C
Dew Point: 5°C
Humidity: 93%
Barometer: 1008 hPa
Summary: Light rain
Clouds: Mostly cloudy
Visibility: 10 km
Cloud details: Few Clouds 91 m
Mostly cloudy 152 m
2021/05/06 23:50 EDDR 062350Z 27005KT 9999 -RA FEW003 BKN005 06/05 Q1008
LFSN - Nancy/Essey, France
Distance from station: S 78km
Updated: 07/05/2021 02:00
Overcast
Overcast
 Wind from W
Wind: W 9 km/h
Temperature: 8°C
Wind Chill: 6°C
Dew Point: 6°C
Humidity: 87%
Barometer: 1009 hPa
Clouds: Overcast
Visibility: 10 km
Cloud details: Mostly cloudy 549 m
Overcast 701 m
2021/05/07 00:00 LFSN 070000Z AUTO 27005KT 230V300 9999 BKN018 OVC023 08/06 Q1009